Fruitland, Maryland
Current Conditions -  °F | °C
As of 1:54 PM on Thursday 30 Oct 2014 (Local Time) from KSBY Reporting Station
Clear Clear  
Wind Chill: 64°   Ceiling: Unl
Heat Index: 64°   Visibility: 10mi
Dew Point: 39°   Wind: 8mph
Humidity: 40%   Direction: 320°NW
Pressure: 30"   Gusts: NA
Location:  38.32°N, 75.62°W
Report Text: KSBY 301754Z 32007KT 290V360 10SM CLR 18/04 A3000 RMK AO2 SLP162 T01780039 10178 20089 58012
Loading
Personal Weather Stations






























Interactive Weather Map
Tropical Storm Tracking
New forecast layout! Learn more

10-Day Weather Forecast

Advertisements
Track Severe Weather on mobile